Time;durP1;ratioP1;P1;durP2;ratioP2;P2;SDS_P1;SDS_P2;PMS_P1;PMS_P2;Temp;Humidity;BMP_temperature;BMP_pressure;BME280_temperature;BME280_humidity;BME280_pressure;Samples;Min_cycle;Max_cycle;Signal;HPM_P1;HPM_P2
2021/05/23 00:02:18;;;;;;;2.77;1.53;;;10.20;99.90;;;10.52;100.00;94651.00;2170611;56;27460;-60
2021/05/23 00:05:08;;;;;;;1.73;1.30;;;10.30;99.90;;;10.64;100.00;94659.00;2168264;56;26639;-60
2021/05/23 00:08:00;;;;;;;1.80;1.50;;;10.20;99.90;;;10.49;100.00;94662.00;2191505;56;26752;-60
2021/05/23 00:10:50;;;;;;;4.63;1.90;;;10.00;99.90;;;10.22;100.00;94672.00;2168502;56;27161;-60
2021/05/23 00:13:44;;;;;;;3.63;2.07;;;9.70;99.90;;;9.97;100.00;94678.00;2217474;56;26363;-60
2021/05/23 00:16:31;;;;;;;3.23;1.60;;;9.60;99.90;;;9.94;100.00;94686.00;2183476;56;26454;-60
2021/05/23 00:19:19;;;;;;;3.43;1.80;;;9.70;99.90;;;10.00;100.00;94704.00;2182784;56;26887;-60
2021/05/23 00:22:06;;;;;;;1.80;1.60;;;9.90;99.90;;;10.36;100.00;94703.00;2171289;56;27236;-60
2021/05/23 00:24:52;;;;;;;2.33;1.50;;;9.60;99.90;;;9.93;100.00;94713.00;2181844;56;26788;-60
2021/05/23 00:27:39;;;;;;;3.83;1.53;;;9.50;99.90;;;9.83;100.00;94715.00;2191069;55;26172;-60
2021/05/23 00:30:27;;;;;;;4.07;1.57;;;9.40;99.90;;;9.70;100.00;94710.00;2161245;56;26624;-60
2021/05/23 00:33:13;;;;;;;4.10;1.20;;;9.50;99.90;;;10.05;100.00;94706.00;2166647;56;26703;-59
2021/05/23 00:36:00;;;;;;;3.67;1.40;;;9.70;99.90;;;10.04;100.00;94705.00;2207401;56;26227;-60
2021/05/23 00:38:46;;;;;;;2.97;1.37;;;9.50;99.90;;;9.91;100.00;94718.00;2174431;56;26616;-60
2021/05/23 00:41:33;;;;;;;2.10;1.27;;;9.60;99.90;;;9.91;100.00;94707.00;2189343;56;26882;-60
2021/05/23 00:44:21;;;;;;;2.77;1.10;;;9.60;99.90;;;9.93;100.00;94710.00;2180037;56;27235;-60
2021/05/23 00:47:07;;;;;;;2.83;1.17;;;9.50;99.90;;;9.77;100.00;94702.00;2183333;56;26730;-63
2021/05/23 00:49:53;;;;;;;2.90;1.30;;;9.40;99.90;;;9.68;100.00;94713.00;2173548;55;26829;-62
2021/05/23 00:52:40;;;;;;;2.87;1.63;;;9.40;99.90;;;9.71;100.00;94716.00;2191116;56;27304;-63
2021/05/23 00:55:26;;;;;;;1.70;1.20;;;9.30;99.90;;;9.53;100.00;94722.00;2173959;56;26895;-61
2021/05/23 00:58:13;;;;;;;1.43;1.13;;;9.30;99.90;;;9.70;100.00;94718.00;2174454;56;26798;-60
2021/05/23 01:02:11;;;;;;;1.73;1.20;;;9.40;99.90;;;9.77;100.00;94726.00;2178903;56;26766;-60
2021/05/23 01:04:58;;;;;;;2.30;1.07;;;9.30;99.90;;;9.48;100.00;94737.00;2137975;58;26663;-62
2021/05/23 01:07:45;;;;;;;2.33;1.10;;;9.30;99.90;;;9.65;100.00;94736.00;2190613;55;26689;-60
2021/05/23 01:10:53;;;;;;;2.83;1.40;;;9.40;99.90;;;9.80;100.00;94730.00;2176896;56;26197;-60
2021/05/23 01:14:17;;;;;;;2.20;1.40;;;9.40;99.90;;;9.72;100.00;94730.00;2165824;55;26575;-60
2021/05/23 01:17:03;;;;;;;2.47;1.10;;;9.20;99.90;;;9.42;100.00;94727.00;2198742;56;26714;-60
2021/05/23 01:20:03;;;;;;;2.83;1.40;;;9.30;99.90;;;9.69;100.00;94720.00;2244817;55;26740;-61
2021/05/23 01:23:01;;;;;;;2.00;1.17;;;9.20;99.90;;;9.41;100.00;94726.00;2234069;55;26727;-60
2021/05/23 01:25:52;;;;;;;3.10;1.10;;;9.00;99.90;;;9.24;100.00;94732.00;2215448;55;26156;-60
2021/05/23 01:28:44;;;;;;;2.90;1.50;;;9.20;99.90;;;9.54;100.00;94731.00;2193741;56;26356;-60
2021/05/23 01:31:32;;;;;;;1.97;1.30;;;9.30;99.90;;;9.70;100.00;94732.00;2193678;56;26553;-60
2021/05/23 01:34:22;;;;;;;2.23;1.10;;;9.40;99.90;;;9.79;100.00;94732.00;2200959;56;26707;-60
2021/05/23 01:37:15;;;;;;;1.40;1.27;;;9.30;99.90;;;9.57;100.00;94733.00;2231917;55;26603;-60
2021/05/23 01:40:01;;;;;;;1.80;1.20;;;9.30;99.90;;;9.69;100.00;94733.00;2215161;55;26701;-60
2021/05/23 01:42:49;;;;;;;1.97;1.30;;;9.30;99.90;;;9.67;100.00;94733.00;2211436;56;26196;-63
2021/05/23 01:45:37;;;;;;;2.80;1.20;;;9.20;99.90;;;9.44;100.00;94736.00;2194620;55;26642;-62
2021/05/23 01:48:23;;;;;;;1.60;1.33;;;9.20;99.90;;;9.40;100.00;94739.00;2192665;56;26646;-61
2021/05/23 01:51:10;;;;;;;1.80;1.20;;;9.10;99.90;;;9.48;100.00;94747.00;2207349;56;26872;-60
2021/05/23 01:53:58;;;;;;;3.43;1.70;;;9.20;99.90;;;9.55;100.00;94744.00;2230988;55;26719;-61
2021/05/23 01:56:45;;;;;;;2.30;1.47;;;9.10;99.90;;;9.31;100.00;94744.00;2202970;56;27349;-60
2021/05/23 01:59:31;;;;;;;2.07;1.27;;;9.10;99.90;;;9.45;100.00;94746.00;2203993;56;26664;-60
2021/05/23 02:02:17;;;;;;;2.30;1.33;;;9.10;99.90;;;9.49;100.00;94752.00;2206412;56;27216;-61
2021/05/23 02:05:06;;;;;;;3.97;1.30;;;9.00;99.90;;;9.27;100.00;94755.00;2195191;56;27570;-60
2021/05/23 02:07:55;;;;;;;1.63;1.47;;;8.90;99.90;;;9.21;100.00;94767.00;2222117;56;26917;-63
2021/05/23 02:10:41;;;;;;;2.57;1.50;;;8.90;99.90;;;9.11;100.00;94777.00;2189563;56;26602;-61
2021/05/23 02:13:29;;;;;;;2.50;1.53;;;8.80;99.90;;;9.03;100.00;94781.00;2191325;56;26128;-61
2021/05/23 02:16:15;;;;;;;2.10;1.50;;;8.80;99.90;;;9.06;100.00;94791.00;2191702;56;26316;-60
2021/05/23 02:19:01;;;;;;;3.20;1.50;;;9.10;99.90;;;9.54;100.00;94788.00;2192528;56;27168;-64
2021/05/23 02:21:49;;;;;;;3.77;1.53;;;9.00;99.90;;;9.32;100.00;94790.00;2197520;56;26683;-61
2021/05/23 02:24:35;;;;;;;2.47;1.40;;;9.10;99.90;;;9.51;100.00;94792.00;2195365;56;26735;-61
2021/05/23 02:27:21;;;;;;;1.77;1.30;;;9.00;99.90;;;9.34;100.00;94791.00;2197380;56;26778;-60
2021/05/23 02:30:15;;;;;;;2.37;1.47;;;9.20;99.90;;;9.59;100.00;94778.00;2195200;56;26223;-62
2021/05/23 02:33:04;;;;;;;2.60;1.43;;;9.00;99.90;;;9.28;100.00;94775.00;2191934;56;26761;-60
2021/05/23 02:35:54;;;;;;;1.50;1.30;;;8.90;99.90;;;9.32;100.00;94784.00;2199584;56;26220;-60
2021/05/23 02:38:40;;;;;;;1.57;1.27;;;9.00;99.90;;;9.38;100.00;94787.00;2205114;56;27246;-60
2021/05/23 02:41:26;;;;;;;4.03;1.70;;;9.00;99.90;;;9.34;100.00;94798.00;2192951;56;26610;-60
2021/05/23 02:44:13;;;;;;;1.40;1.30;;;8.90;99.90;;;9.12;100.00;94798.00;2233098;56;27403;-60
2021/05/23 02:47:00;;;;;;;1.70;1.27;;;8.90;99.90;;;9.20;100.00;94814.00;2231568;55;26844;-60
2021/05/23 02:49:47;;;;;;;3.90;1.30;;;8.80;99.90;;;9.16;100.00;94815.00;2206496;56;27007;-60
2021/05/23 02:52:33;;;;;;;4.40;1.30;;;8.70;99.90;;;9.06;100.00;94826.00;2195401;56;26813;-60
2021/05/23 02:55:20;;;;;;;1.40;1.10;;;8.70;99.90;;;9.06;100.00;94825.00;2225946;56;26135;-62
2021/05/23 02:58:07;;;;;;;4.67;1.30;;;8.70;99.90;;;8.94;100.00;94839.00;2205665;55;26393;-62
2021/05/23 03:00:54;;;;;;;1.10;0.97;;;8.50;99.90;;;8.79;100.00;94827.00;2197556;56;26900;-61
2021/05/23 03:03:40;;;;;;;1.13;0.90;;;8.40;99.90;;;8.64;100.00;94837.00;2195285;56;26845;-63
2021/05/23 03:06:27;;;;;;;1.37;0.87;;;8.20;99.90;;;8.47;100.00;94840.00;2193230;56;26730;-62
2021/05/23 03:09:14;;;;;;;2.90;0.97;;;8.00;99.90;;;8.25;100.00;94837.00;2199431;56;26909;-63
2021/05/23 03:12:00;;;;;;;1.67;0.97;;;7.90;99.90;;;8.17;100.00;94857.00;2227054;55;27123;-63
2021/05/23 03:14:47;;;;;;;2.03;0.97;;;7.80;99.90;;;8.09;100.00;94873.00;2214959;56;26734;-62
2021/05/23 03:17:33;;;;;;;0.90;0.77;;;7.80;99.90;;;8.08;100.00;94874.00;2204281;56;26888;-63
2021/05/23 03:20:22;;;;;;;1.63;0.80;;;7.80;99.90;;;8.04;100.00;94878.00;2231094;56;26881;-63
2021/05/23 03:23:09;;;;;;;4.17;1.00;;;7.70;99.90;;;7.99;100.00;94894.00;2203877;56;27089;-63
2021/05/23 03:25:55;;;;;;;2.23;1.00;;;7.70;99.90;;;7.95;100.00;94903.00;2204352;56;26891;-62
2021/05/23 03:28:41;;;;;;;1.40;1.00;;;7.70;99.90;;;7.94;100.00;94909.00;2235546;55;26618;-63
2021/05/23 03:31:28;;;;;;;1.40;0.87;;;7.60;99.90;;;7.87;100.00;94914.00;2230072;56;26791;-62
2021/05/23 03:34:14;;;;;;;1.93;0.90;;;7.50;99.90;;;7.79;100.00;94916.00;2202999;56;26970;-62
2021/05/23 03:37:00;;;;;;;4.00;0.90;;;7.50;99.90;;;7.77;100.00;94918.00;2205826;55;26246;-62
2021/05/23 03:39:47;;;;;;;1.83;0.63;;;7.40;99.90;;;7.68;100.00;94922.00;2212433;56;26298;-62
2021/05/23 03:42:34;;;;;;;0.60;0.60;;;7.30;99.90;;;7.66;100.00;94928.00;2196229;56;26615;-63
2021/05/23 03:45:24;;;;;;;1.03;0.80;;;7.30;99.90;;;7.59;100.00;94926.00;2219889;56;27112;-62
2021/05/23 03:48:10;;;;;;;2.70;0.93;;;7.20;99.90;;;7.50;100.00;94926.00;2210400;55;27436;-62
2021/05/23 03:50:57;;;;;;;0.77;0.67;;;7.20;99.90;;;7.52;100.00;94927.00;2205416;56;26715;-62
2021/05/23 03:53:44;;;;;;;2.30;0.70;;;7.20;99.90;;;7.51;100.00;94933.00;2199155;56;26975;-62
2021/05/23 03:56:30;;;;;;;1.07;0.73;;;7.20;99.90;;;7.47;100.00;94939.00;2209839;55;26636;-62
2021/05/23 03:59:16;;;;;;;1.73;0.80;;;7.30;99.90;;;7.59;100.00;94946.00;2195978;56;26929;-63
2021/05/23 04:02:03;;;;;;;1.70;0.90;;;7.20;99.90;;;7.51;100.00;94954.00;2215180;55;26928;-63
2021/05/23 04:04:56;;;;;;;1.37;0.67;;;7.30;99.90;;;7.61;100.00;94957.00;2192897;56;27238;-62
2021/05/23 04:07:42;;;;;;;0.93;0.80;;;7.30;99.90;;;7.64;100.00;94956.00;2194325;56;26806;-62
2021/05/23 04:10:31;;;;;;;0.70;0.70;;;7.30;99.90;;;7.59;100.00;94953.00;2212529;56;27325;-62
2021/05/23 04:13:20;;;;;;;0.93;0.83;;;7.30;99.90;;;7.78;100.00;94956.00;2199858;55;26670;-63
2021/05/23 04:16:07;;;;;;;1.67;0.80;;;7.40;99.90;;;7.81;100.00;94956.00;2194129;56;26707;-62
2021/05/23 04:18:53;;;;;;;0.77;0.70;;;7.40;99.90;;;7.78;100.00;94951.00;2196827;55;26249;-62
2021/05/23 04:21:39;;;;;;;0.67;0.60;;;7.40;99.90;;;7.85;100.00;94957.00;2200475;56;26288;-62
2021/05/23 04:24:26;;;;;;;0.73;0.73;;;7.40;99.90;;;7.74;100.00;94952.00;2193535;56;26723;-63
2021/05/23 04:27:13;;;;;;;0.63;0.60;;;7.40;99.90;;;7.78;100.00;94958.00;2205689;56;28135;-62
2021/05/23 04:29:59;;;;;;;0.90;0.57;;;7.40;99.90;;;7.84;100.00;94958.00;2223937;56;26754;-62
2021/05/23 04:32:46;;;;;;;1.13;0.80;;;7.40;99.90;;;7.86;100.00;94965.00;2194785;56;26724;-62
2021/05/23 04:35:32;;;;;;;1.23;0.77;;;7.60;99.90;;;8.03;100.00;94960.00;2222060;55;26688;-62
2021/05/23 04:38:19;;;;;;;4.13;2.93;;;7.50;99.90;;;7.84;100.00;94968.00;2191561;56;27556;-62
2021/05/23 04:41:07;;;;;;;1.60;0.80;;;7.60;99.90;;;8.03;100.00;94970.00;2214172;56;26272;-63
2021/05/23 04:43:55;;;;;;;2.33;1.00;;;7.50;99.90;;;7.83;100.00;94969.00;2193577;55;26840;-62
2021/05/23 04:46:44;;;;;;;1.50;0.70;;;7.50;99.90;;;7.82;100.00;94975.00;2213641;56;26655;-62
2021/05/23 04:49:38;;;;;;;0.90;0.70;;;7.40;99.90;;;7.75;100.00;94977.00;2191552;56;27047;-62
2021/05/23 04:52:25;;;;;;;0.87;0.80;;;7.40;99.90;;;7.72;100.00;94972.00;2183202;56;26268;-62
2021/05/23 04:55:13;;;;;;;0.60;0.60;;;7.30;99.90;;;7.58;100.00;94984.00;2222597;56;26131;-62
2021/05/23 04:58:00;;;;;;;0.90;0.47;;;7.20;99.90;;;7.51;100.00;94988.00;2228718;55;26097;-63
2021/05/23 05:00:48;;;;;;;0.60;0.60;;;7.10;99.90;;;7.49;100.00;94988.00;2191824;56;26661;-63
2021/05/23 05:03:38;;;;;;;0.40;0.30;;;7.00;99.90;;;7.34;100.00;94995.00;2192779;56;26920;-63
2021/05/23 05:06:28;;;;;;;0.70;0.70;;;6.70;99.90;;;7.08;100.00;95000.00;2191004;56;26725;-63
2021/05/23 05:09:16;;;;;;;0.87;0.43;;;6.70;99.90;;;7.08;100.00;95010.00;2220263;55;26782;-62
2021/05/23 05:12:03;;;;;;;0.97;0.40;;;6.70;99.90;;;7.18;100.00;95011.00;2237887;55;26261;-62
2021/05/23 05:14:49;;;;;;;1.77;1.27;;;6.70;99.90;;;7.07;100.00;95014.00;2191069;56;26672;-63
2021/05/23 05:17:35;;;;;;;2.20;1.03;;;6.70;99.90;;;7.01;100.00;95016.00;2294358;55;27104;-62
2021/05/23 05:20:22;;;;;;;11.30;7.40;;;6.70;99.90;;;7.04;100.00;95019.00;2409693;55;26716;-62
2021/05/23 05:23:08;;;;;;;9.50;5.13;;;6.70;99.90;;;7.03;100.00;95020.00;2192377;56;26979;-63
2021/05/23 05:25:54;;;;;;;11.23;6.10;;;6.80;99.90;;;7.25;100.00;95030.00;2409001;55;26713;-62
2021/05/23 05:28:41;;;;;;;10.13;5.67;;;6.80;99.90;;;7.27;100.00;95027.00;2190159;56;26741;-63
2021/05/23 05:31:27;;;;;;;6.93;4.67;;;7.00;99.90;;;7.49;100.00;95021.00;2277836;55;26859;-62
2021/05/23 05:34:14;;;;;;;2.07;1.80;;;7.00;99.90;;;7.48;100.00;95028.00;2335723;55;26148;-62
2021/05/23 05:37:02;;;;;;;1.60;1.50;;;7.10;99.90;;;7.67;100.00;95037.00;2191572;56;26934;-62
2021/05/23 05:39:49;;;;;;;0.70;0.70;;;7.10;99.90;;;7.49;100.00;95031.00;2405017;55;26680;-63
2021/05/23 05:42:35;;;;;;;0.57;0.57;;;7.10;99.90;;;7.51;100.00;95042.00;2245208;55;26708;-62
2021/05/23 05:45:22;;;;;;;1.60;0.87;;;6.90;99.90;;;7.37;100.00;95044.00;2190393;56;26710;-63
2021/05/23 05:48:09;;;;;;;1.23;1.13;;;7.00;99.90;;;7.41;100.00;95044.00;2189983;56;26844;-63
2021/05/23 05:50:55;;;;;;;0.50;0.50;;;7.00;99.90;;;7.39;100.00;95055.00;2320910;55;26748;-63
2021/05/23 05:53:42;;;;;;;0.77;0.40;;;7.10;99.90;;;7.47;100.00;95052.00;2190234;56;26937;-65
2021/05/23 05:56:28;;;;;;;0.30;0.30;;;6.90;99.90;;;7.31;100.00;95057.00;2191288;56;27076;-62
2021/05/23 05:59:15;;;;;;;0.27;0.27;;;6.90;99.90;;;7.36;100.00;95059.00;2192127;56;26295;-62
2021/05/23 06:02:01;;;;;;;0.40;0.40;;;6.90;99.90;;;7.34;100.00;95073.00;2191561;56;26120;-62
2021/05/23 06:04:49;;;;;;;0.20;0.17;;;7.10;99.90;;;7.55;100.00;95064.00;2193382;56;25960;-62
2021/05/23 06:07:35;;;;;;;0.23;0.23;;;7.10;99.90;;;7.50;100.00;95068.00;2192157;56;27538;-63
2021/05/23 06:10:21;;;;;;;4.40;3.83;;;7.00;99.90;;;7.51;100.00;95061.00;2192833;56;26949;-62
2021/05/23 06:13:08;;;;;;;0.70;0.70;;;7.00;99.90;;;7.38;100.00;95074.00;2295297;55;26244;-63
2021/05/23 06:15:54;;;;;;;0.67;0.40;;;7.00;99.90;;;7.40;100.00;95071.00;2192893;56;26632;-63
2021/05/23 06:18:41;;;;;;;1.33;0.90;;;7.00;99.90;;;7.35;100.00;95080.00;2189860;56;26869;-63
2021/05/23 06:21:27;;;;;;;0.20;0.20;;;7.00;99.90;;;7.43;100.00;95079.00;2188233;56;26940;-63
2021/05/23 06:24:14;;;;;;;0.30;0.30;;;7.20;99.90;;;7.74;100.00;95089.00;2372216;55;26924;-63
2021/05/23 06:27:00;;;;;;;1.87;1.60;;;7.20;99.90;;;7.73;100.00;95089.00;2232059;55;26593;-62
2021/05/23 06:29:48;;;;;;;2.10;0.40;;;7.10;99.90;;;7.63;100.00;95097.00;2268440;55;26855;-63
2021/05/23 06:32:35;;;;;;;0.40;0.30;;;7.30;99.90;;;7.85;100.00;95088.00;2194749;56;26560;-62
2021/05/23 06:35:21;;;;;;;0.40;0.40;;;7.20;99.90;;;7.75;100.00;95098.00;2317286;55;26180;-63
2021/05/23 06:38:08;;;;;;;0.40;0.40;;;7.00;99.90;;;7.44;100.00;95099.00;2190991;56;26688;-62
2021/05/23 06:40:54;;;;;;;0.70;0.50;;;6.90;99.90;;;7.29;100.00;95102.00;2329721;55;25883;-62
2021/05/23 06:43:40;;;;;;;0.60;0.60;;;7.00;99.90;;;7.53;100.00;95114.00;2187562;56;26868;-62
2021/05/23 06:46:27;;;;;;;0.80;0.80;;;7.20;99.90;;;7.66;100.00;95122.00;2176997;56;26845;-62
2021/05/23 06:49:13;;;;;;;0.80;0.80;;;7.00;99.90;;;7.38;100.00;95121.00;2178019;56;26936;-62
2021/05/23 06:52:00;;;;;;;1.13;0.97;;;7.00;99.90;;;7.45;100.00;95121.00;2227201;55;27158;-63
2021/05/23 06:54:46;;;;;;;0.33;0.33;;;7.00;99.90;;;7.55;100.00;95125.00;2178355;56;26721;-62
2021/05/23 06:57:32;;;;;;;0.53;0.53;;;7.10;99.90;;;7.50;100.00;95135.00;2177537;56;26881;-62
2021/05/23 07:00:21;;;;;;;1.87;1.77;;;7.20;99.90;;;7.70;100.00;95141.00;2181356;56;26904;-62
2021/05/23 07:03:07;;;;;;;0.43;0.43;;;7.20;99.90;;;7.63;100.00;95143.00;2182888;56;25574;-62
2021/05/23 07:05:54;;;;;;;0.30;0.30;;;7.20;99.90;;;7.68;100.00;95141.00;2182997;56;26787;-62
2021/05/23 07:08:40;;;;;;;0.97;0.90;;;7.20;99.90;;;7.50;100.00;95140.00;2218573;56;27142;-62
2021/05/23 07:11:27;;;;;;;1.10;1.00;;;7.10;99.90;;;7.49;100.00;95144.00;2278193;55;26581;-63
2021/05/23 07:14:13;;;;;;;1.50;1.40;;;7.20;99.90;;;7.71;100.00;95154.00;2181076;56;26581;-62
2021/05/23 07:16:59;;;;;;;0.70;0.30;;;7.30;99.90;;;7.98;100.00;95148.00;2182416;56;26136;-63
2021/05/23 07:19:46;;;;;;;0.80;0.70;;;7.40;99.90;;;7.94;100.00;95162.00;2181948;56;26676;-62
2021/05/23 07:22:32;;;;;;;0.57;0.47;;;7.20;99.90;;;7.75;100.00;95158.00;2352933;55;26236;-62
2021/05/23 07:25:19;;;;;;;0.30;0.30;;;7.50;99.90;;;8.14;100.00;95155.00;2338613;55;27132;-62
2021/05/23 07:28:06;;;;;;;0.40;0.40;;;7.60;99.90;;;8.14;100.00;95164.00;2408549;55;26609;-63
2021/05/23 07:30:52;;;;;;;0.50;0.40;;;7.50;99.90;;;7.98;100.00;95166.00;2192493;56;26152;-62
2021/05/23 07:33:38;;;;;;;0.47;0.47;;;7.40;99.90;;;7.89;100.00;95180.00;2412940;55;26116;-63
2021/05/23 07:36:24;;;;;;;0.57;0.40;;;7.60;99.90;;;8.09;100.00;95182.00;2193115;56;27360;-62
2021/05/23 07:39:11;;;;;;;0.40;0.30;;;7.80;99.90;;;8.41;100.00;95177.00;2189488;56;26834;-63
2021/05/23 07:41:59;;;;;;;0.50;0.40;;;7.90;99.90;;;8.37;100.00;95178.00;2317860;55;26224;-63
2021/05/23 07:44:46;;;;;;;0.30;0.30;;;7.80;99.90;;;8.41;100.00;95179.00;2192700;56;27115;-63
2021/05/23 07:47:32;;;;;;;0.40;0.40;;;7.90;99.90;;;8.35;100.00;95177.00;2410071;55;26661;-62
2021/05/23 07:50:19;;;;;;;0.40;0.40;;;8.00;99.90;;;8.65;100.00;95188.00;2192302;56;26939;-62
2021/05/23 07:53:05;;;;;;;1.67;0.50;;;7.80;99.90;;;8.28;100.00;95192.00;2191923;56;27322;-64
2021/05/23 07:55:51;;;;;;;0.40;0.40;;;7.80;99.90;;;8.25;100.00;95173.00;2254036;55;26148;-63
2021/05/23 07:58:38;;;;;;;1.00;0.70;;;7.80;99.90;;;8.48;100.00;95179.00;2230493;55;26827;-63
2021/05/23 08:01:24;;;;;;;0.70;0.70;;;8.10;99.90;;;8.88;100.00;95182.00;2192363;56;26850;-62
2021/05/23 08:04:10;;;;;;;0.90;0.77;;;8.40;99.90;;;9.11;100.00;95183.00;2373659;55;26659;-62
2021/05/23 08:06:57;;;;;;;1.33;1.10;;;8.20;99.90;;;8.88;100.00;95188.00;2192112;56;27111;-63
2021/05/23 08:09:43;;;;;;;1.53;1.27;;;8.30;99.90;;;9.03;100.00;95193.00;2191280;56;26707;-62
2021/05/23 08:12:29;;;;;;;0.60;0.60;;;8.20;99.90;;;9.02;100.00;95210.00;2225528;56;26692;-64
2021/05/23 08:15:17;;;;;;;1.17;0.80;;;8.30;99.90;;;9.01;100.00;95211.00;2191580;56;26710;-63
2021/05/23 08:18:03;;;;;;;0.33;0.33;;;8.50;99.90;;;9.26;100.00;95209.00;2227789;55;26243;-63
2021/05/23 08:20:54;;;;;;;0.50;0.50;;;8.50;99.90;;;9.02;100.00;95210.00;2256931;55;27257;-63
2021/05/23 08:23:42;;;;;;;0.63;0.47;;;8.50;99.90;;;9.13;100.00;95215.00;2187134;56;26912;-62
2021/05/23 08:26:28;;;;;;;1.00;0.40;;;8.30;99.90;;;8.92;100.00;95220.00;2183975;56;26897;-63
2021/05/23 08:29:15;;;;;;;0.50;0.50;;;8.40;99.90;;;9.15;100.00;95213.00;2181528;56;26840;-63
2021/05/23 08:32:02;;;;;;;0.77;0.30;;;8.80;99.90;;;9.40;100.00;95207.00;2182916;56;27320;-62
2021/05/23 08:34:48;;;;;;;0.37;0.37;;;8.60;99.90;;;9.33;100.00;95216.00;2184952;55;26668;-62
2021/05/23 08:37:35;;;;;;;0.50;0.50;;;9.00;99.90;;;10.01;100.00;95217.00;2221917;55;26805;-64
2021/05/23 08:40:21;;;;;;;1.70;1.40;;;8.90;99.90;;;9.80;100.00;95224.00;2194113;56;26737;-64
2021/05/23 08:43:09;;;;;;;0.70;0.70;;;9.20;99.90;;;10.03;100.00;95222.00;2351956;55;26984;-64
2021/05/23 08:45:56;;;;;;;4.00;0.53;;;9.20;99.90;;;10.11;100.00;95214.00;2181650;56;26794;-64
2021/05/23 08:48:43;;;;;;;0.80;0.50;;;9.20;99.90;;;10.05;100.00;95218.00;2190510;56;26814;-64
2021/05/23 08:51:30;;;;;;;0.60;0.40;;;9.60;99.90;;;10.69;100.00;95206.00;2186225;56;27218;-63
2021/05/23 08:54:17;;;;;;;1.50;1.20;;;9.90;99.90;;;10.97;100.00;95207.00;2360389;55;26992;-64
2021/05/23 08:57:03;;;;;;;0.53;0.40;;;10.70;99.90;;;12.53;100.00;95213.00;2307697;55;26675;-64
2021/05/23 08:59:51;;;;;;;0.80;0.70;;;11.70;99.90;;;13.48;100.00;95227.00;2181883;56;26692;-64
2021/05/23 09:02:50;;;;;;;1.20;0.60;;;10.90;99.90;;;12.28;100.00;95227.00;2177589;56;26831;-64
2021/05/23 09:05:41;;;;;;;1.00;0.60;;;10.20;99.90;;;11.17;100.00;95223.00;2326106;55;26153;-64
2021/05/23 09:08:30;;;;;;;0.87;0.70;;;10.60;99.90;;;12.01;100.00;95212.00;2285512;55;26694;-64
2021/05/23 09:11:24;;;;;;;0.63;0.40;;;11.00;99.90;;;12.22;100.00;95209.00;2185147;56;26690;-64
2021/05/23 09:14:10;;;;;;;0.97;0.90;;;10.70;99.90;;;11.98;100.00;95213.00;2203184;55;26669;-64
2021/05/23 09:16:56;;;;;;;0.67;0.60;;;11.50;99.90;;;13.69;100.00;95215.00;2187085;56;26961;-64
2021/05/23 09:19:44;;;;;;;0.82;0.60;;;11.80;99.90;;;13.77;100.00;95213.00;2309396;55;26964;-64
2021/05/23 09:22:30;;;;;;;1.50;0.50;;;12.70;99.90;;;15.01;100.00;95198.00;2189271;56;26736;-64
2021/05/23 09:25:31;;;;;;;0.93;0.60;;;13.40;99.90;;;15.98;100.00;95201.00;2216314;55;27152;-64
2021/05/23 09:28:29;;;;;;;0.93;0.67;;;12.80;99.90;;;14.63;100.00;95206.00;2191512;56;26631;-64
2021/05/23 09:31:18;;;;;;;2.70;0.83;;;12.50;99.90;;;13.70;100.00;95215.00;2280995;55;26790;-64
2021/05/23 09:34:06;;;;;;;1.50;0.50;;;12.60;99.90;;;14.22;100.00;95211.00;2189550;56;26789;-64
2021/05/23 09:36:53;;;;;;;0.43;0.43;;;13.40;99.90;;;15.52;100.00;95205.00;2189475;56;26672;-64
2021/05/23 09:39:41;;;;;;;0.55;0.40;;;13.50;99.90;;;15.59;100.00;95206.00;2189432;56;27347;-64
2021/05/23 09:42:27;;;;;;;1.02;0.80;;;13.00;99.90;;;14.85;100.00;95208.00;2326466;55;26903;-64
2021/05/23 09:45:15;;;;;;;1.40;0.65;;;13.10;99.90;;;14.86;100.00;95204.00;2187002;56;26675;-64
2021/05/23 09:48:02;;;;;;;1.17;0.80;;;12.40;99.90;;;13.97;100.00;95219.00;2362548;55;26583;-64
2021/05/23 09:50:50;;;;;;;2.33;0.60;;;12.40;99.90;;;13.82;100.00;95224.00;2187994;56;27342;-64
2021/05/23 09:53:37;;;;;;;2.00;0.60;;;13.10;99.90;;;15.25;100.00;95214.00;2282219;55;27343;-64
2021/05/23 09:56:31;;;;;;;1.00;0.90;;;14.20;99.90;;;16.37;100.00;95220.00;2178105;56;26820;-65
2021/05/23 09:59:23;;;;;;;1.42;1.00;;;12.90;99.90;;;13.86;100.00;95233.00;2406547;55;27616;-65
2021/05/23 10:02:12;;;;;;;2.23;1.40;;;12.70;99.90;;;13.60;100.00;95228.00;2187678;56;27440;-65
2021/05/23 10:05:04;;;;;;;1.00;0.80;;;12.10;99.90;;;12.70;100.00;95232.00;2234582;56;26964;-65
2021/05/23 10:07:51;;;;;;;1.93;1.00;;;11.90;99.90;;;12.76;100.00;95229.00;2405831;55;26802;-65
2021/05/23 10:10:37;;;;;;;1.45;0.82;;;12.40;99.90;;;13.41;100.00;95226.00;2190921;56;26621;-65
2021/05/23 10:13:25;;;;;;;1.25;0.80;;;14.30;99.90;;;16.47;100.00;95218.00;2402132;55;27117;-65
2021/05/23 10:16:12;;;;;;;1.00;0.90;;;13.70;99.90;;;15.21;100.00;95218.00;2379641;55;26867;-64
2021/05/23 10:18:59;;;;;;;0.90;0.70;;;14.90;99.90;;;16.79;100.00;95215.00;2189096;56;26776;-65
2021/05/23 10:21:47;;;;;;;1.58;0.95;;;14.50;99.90;;;15.72;100.00;95211.00;2188283;56;26952;-64
2021/05/23 10:24:38;;;;;;;0.75;0.60;;;13.20;99.90;;;14.34;100.00;95221.00;2400284;55;27267;-64
2021/05/23 10:27:30;;;;;;;1.07;0.70;;;12.70;99.90;;;13.98;100.00;95232.00;2325531;55;26116;-65
2021/05/23 10:30:19;;;;;;;0.75;0.68;;;12.60;99.90;;;13.75;100.00;95230.00;2209111;55;26637;-65
2021/05/23 10:33:11;;;;;;;1.48;1.05;;;14.10;99.90;;;16.00;100.00;95220.00;2230700;55;27101;-65
2021/05/23 10:35:58;;;;;;;2.17;1.17;;;14.90;99.90;;;16.78;100.00;95219.00;2176606;56;27190;-65
2021/05/23 10:38:55;;;;;;;1.45;0.68;;;14.20;99.90;;;15.58;100.00;95218.00;2181397;56;26713;-63
2021/05/23 10:41:43;;;;;;;1.60;0.77;;;14.00;99.90;;;15.72;100.00;95221.00;2394637;55;26764;-65
2021/05/23 10:44:44;;;;;;;1.70;0.82;;;14.50;99.90;;;16.48;100.00;95222.00;2263387;56;27130;-65
2021/05/23 10:47:33;;;;;;;0.77;0.70;;;14.40;99.90;;;15.83;100.00;95227.00;2182119;56;26699;-65
2021/05/23 10:50:32;;;;;;;1.50;0.55;;;13.70;99.90;;;14.84;100.00;95223.00;2349507;55;27435;-62
2021/05/23 10:53:18;;;;;;;0.85;0.60;;;15.20;99.90;;;17.13;100.00;95212.00;2185302;56;26870;-63
2021/05/23 10:56:05;;;;;;;1.17;0.70;;;16.10;99.90;;;18.44;100.00;95218.00;2179886;56;26678;-63
2021/05/23 10:59:00;;;;;;;2.35;1.00;;;16.80;99.90;;;19.09;100.00;95211.00;2178827;56;26867;-63
2021/05/23 11:01:52;;;;;;;2.62;0.62;;;18.90;99.90;;;21.64;62.21;95206.00;2177840;56;26894;-63
2021/05/23 11:04:39;;;;;;;1.12;0.47;;;18.50;99.90;;;20.27;85.22;95205.00;2180377;56;26196;-63
2021/05/23 11:07:25;;;;;;;0.62;0.50;;;18.10;99.90;;;20.44;64.34;95203.00;2179761;56;26183;-63
2021/05/23 11:10:38;;;;;;;0.90;0.70;;;17.30;99.90;;;19.38;96.16;95210.00;2186823;56;26709;-63
2021/05/23 11:13:34;;;;;;;1.50;0.65;;;19.70;99.90;;;22.50;52.58;95206.00;2172629;56;27115;-63
2021/05/23 11:16:20;;;;;;;1.02;0.55;;;19.00;99.90;;;20.74;54.43;95207.00;2170901;56;26625;-63
2021/05/23 11:19:06;;;;;;;0.65;0.50;;;17.20;99.90;;;18.34;82.15;95208.00;2191762;55;26953;-63
2021/05/23 11:21:54;;;;;;;1.90;1.00;;;18.10;99.90;;;21.01;61.35;95199.00;2226877;55;26932;-62
2021/05/23 11:24:45;;;;;;;1.20;0.80;;;18.60;99.90;;;20.45;78.36;95202.00;2386339;55;26934;-62
2021/05/23 11:27:31;;;;;;;1.05;0.60;;;19.10;99.90;;;21.53;59.29;95197.00;2279790;55;26678;-62
2021/05/23 11:30:18;;;;;;;0.90;0.62;;;17.70;99.90;;;19.24;63.50;95187.00;2187335;56;26681;-64
2021/05/23 11:33:08;;;;;;;0.90;0.50;;;18.30;99.90;;;20.48;70.16;95193.00;2186264;56;27352;-63
2021/05/23 11:35:54;;;;;;;1.17;0.68;;;18.40;99.90;;;20.70;57.25;95178.00;2189108;56;26781;-63
2021/05/23 11:38:40;;;;;;;0.98;0.77;;;19.60;99.90;;;20.29;50.31;95184.00;2185846;56;27473;-62
2021/05/23 11:41:33;;;;;;;1.42;0.57;;;19.50;99.90;;;21.40;55.15;95170.00;2189014;56;26125;-62
2021/05/23 11:44:19;;;;;;;0.60;0.50;;;17.00;99.90;;;17.40;57.67;95191.00;2189365;56;26829;-62
2021/05/23 11:47:06;;;;;;;1.33;0.60;;;16.40;99.90;;;17.53;67.71;95185.00;2189930;56;26803;-63
2021/05/23 11:49:53;;;;;;;1.40;0.68;;;17.30;99.90;;;18.84;56.49;95181.00;2406349;55;27295;-63
2021/05/23 11:52:43;;;;;;;1.15;0.60;;;17.40;99.90;;;18.76;54.12;95179.00;2224925;55;27227;-63